createdAt,value
2017-04-12T00:01:04.725Z,0
2017-04-12T00:02:12.810Z,0
2017-04-12T00:03:20.899Z,0
2017-04-12T00:04:28.985Z,0
2017-04-12T00:05:37.080Z,0
2017-04-12T00:06:45.174Z,0
2017-04-12T00:07:53.264Z,0
2017-04-12T00:09:01.348Z,0
2017-04-12T00:10:09.438Z,0
2017-04-12T00:11:17.526Z,0
2017-04-12T00:12:25.614Z,0
2017-04-12T00:13:33.698Z,0
2017-04-12T00:14:41.793Z,0
2017-04-12T00:15:49.884Z,0
2017-04-12T00:16:57.967Z,0
2017-04-12T00:18:06.055Z,0
2017-04-12T00:19:14.153Z,0
2017-04-12T00:20:22.231Z,0
2017-04-12T00:21:30.322Z,0
2017-04-12T00:22:38.419Z,0
2017-04-12T00:23:46.511Z,0
2017-04-12T00:24:54.595Z,0
2017-04-12T00:26:02.691Z,0
2017-04-12T00:27:10.781Z,0
2017-04-12T00:28:18.868Z,0
2017-04-12T00:29:26.955Z,0
2017-04-12T00:30:35.045Z,0
2017-04-12T00:31:43.128Z,0
2017-04-12T00:32:51.218Z,0
2017-04-12T00:33:59.318Z,0
2017-04-12T00:35:07.403Z,0
2017-04-12T00:36:15.499Z,0
2017-04-12T00:37:23.577Z,0
2017-04-12T00:38:31.666Z,0
2017-04-12T00:39:39.748Z,0
2017-04-12T00:40:47.833Z,0
2017-04-12T00:41:55.925Z,0
2017-04-12T00:43:04.014Z,0
2017-04-12T00:44:12.096Z,0
2017-04-12T00:45:20.189Z,0
2017-04-12T00:46:28.287Z,0
2017-04-12T00:47:36.374Z,0
2017-04-12T00:48:44.457Z,0
2017-04-12T00:49:52.544Z,0
2017-04-12T00:51:00.637Z,0
2017-04-12T00:52:08.720Z,0
2017-04-12T00:53:16.812Z,0
2017-04-12T00:54:24.900Z,0
2017-04-12T00:55:32.994Z,0
2017-04-12T00:56:41.093Z,0
2017-04-12T00:57:49.180Z,0
2017-04-12T00:58:57.267Z,0
2017-04-12T01:00:05.358Z,0
2017-04-12T01:01:13.436Z,0
2017-04-12T01:02:21.533Z,0
2017-04-12T01:03:29.621Z,0
2017-04-12T01:04:37.722Z,0
2017-04-12T01:05:45.811Z,0
2017-04-12T01:06:53.895Z,0
2017-04-12T01:08:01.984Z,0
2017-04-12T01:09:10.072Z,0
2017-04-12T01:10:18.165Z,0
2017-04-12T01:11:26.253Z,0
2017-04-12T01:12:34.337Z,0
2017-04-12T01:13:42.426Z,0
2017-04-12T01:14:50.514Z,0
2017-04-12T01:15:58.596Z,0
2017-04-12T01:17:06.693Z,0
2017-04-12T01:18:14.777Z,0
2017-04-12T01:19:22.860Z,0
2017-04-12T01:20:30.946Z,0
2017-04-12T01:21:39.046Z,0
2017-04-12T01:22:47.136Z,0
2017-04-12T01:23:55.220Z,0
2017-04-12T01:25:03.312Z,0
2017-04-12T01:26:11.396Z,0
2017-04-12T01:27:19.479Z,0
2017-04-12T01:28:27.572Z,0
2017-04-12T01:29:35.659Z,0
2017-04-12T01:30:43.739Z,0
2017-04-12T01:31:51.828Z,0
2017-04-12T01:32:59.917Z,0
2017-04-12T01:34:08.005Z,0
2017-04-12T01:35:16.089Z,0
2017-04-12T01:36:24.178Z,0
2017-04-12T01:37:32.265Z,0
2017-04-12T01:38:40.352Z,0
2017-04-12T01:39:48.435Z,0
2017-04-12T01:40:56.530Z,0
2017-04-12T01:42:04.614Z,0
2017-04-12T01:43:12.698Z,0
2017-04-12T01:44:20.791Z,0
2017-04-12T01:45:28.876Z,0
2017-04-12T01:46:36.966Z,0
2017-04-12T01:47:45.050Z,0
2017-04-12T01:48:53.144Z,0
2017-04-12T01:50:01.234Z,0
2017-04-12T01:51:09.323Z,0
2017-04-12T01:52:17.413Z,0
2017-04-12T01:53:25.508Z,0
2017-04-12T01:54:33.595Z,0
2017-04-12T01:55:41.687Z,0
2017-04-12T01:56:49.787Z,0
2017-04-12T01:57:57.872Z,0
2017-04-12T01:59:05.954Z,0
2017-04-12T02:00:14.044Z,0
2017-04-12T02:01:22.128Z,0
2017-04-12T02:02:30.222Z,0
2017-04-12T02:03:38.306Z,0
2017-04-12T02:04:46.399Z,0
2017-04-12T02:05:54.482Z,0
2017-04-12T02:07:02.574Z,0
2017-04-12T02:08:10.668Z,0
2017-04-12T02:09:18.759Z,0
2017-04-12T02:10:26.846Z,0
2017-04-12T02:11:34.937Z,0
2017-04-12T02:12:43.031Z,0
2017-04-12T02:13:51.116Z,0
2017-04-12T02:14:59.203Z,0
2017-04-12T02:16:07.298Z,0
2017-04-12T02:17:15.382Z,0
2017-04-12T02:18:23.468Z,0
2017-04-12T02:19:31.556Z,0
2017-04-12T02:20:39.651Z,0
2017-04-12T02:21:47.741Z,0
2017-04-12T02:22:55.819Z,0
2017-04-12T02:24:03.910Z,0
2017-04-12T02:25:11.996Z,0
2017-04-12T02:26:20.084Z,0
2017-04-12T02:27:28.170Z,0
2017-04-12T02:28:36.262Z,0
2017-04-12T02:29:44.344Z,0
2017-04-12T02:30:52.440Z,0
2017-04-12T02:32:00.521Z,0
2017-04-12T02:33:08.609Z,0
2017-04-12T02:34:16.698Z,0
2017-04-12T02:35:24.785Z,0
2017-04-12T02:36:32.869Z,0
2017-04-12T02:37:40.957Z,0
2017-04-12T02:38:49.043Z,0
2017-04-12T02:39:57.132Z,0
2017-04-12T02:41:05.216Z,0
2017-04-12T02:42:13.319Z,0
2017-04-12T02:43:21.399Z,0
2017-04-12T02:44:29.485Z,0
2017-04-12T02:45:37.571Z,0
2017-04-12T02:46:45.749Z,0
2017-04-12T02:47:53.747Z,0
2017-04-12T02:49:01.832Z,0
2017-04-12T02:50:09.922Z,0
2017-04-12T02:51:18.014Z,0
2017-04-12T02:52:26.095Z,0
2017-04-12T02:53:34.183Z,0
2017-04-12T02:54:42.265Z,0
2017-04-12T02:55:50.357Z,0
2017-04-12T02:56:58.443Z,0
2017-04-12T02:58:06.526Z,0
2017-04-12T02:59:14.619Z,0
2017-04-12T03:00:22.702Z,0
2017-04-12T03:01:30.795Z,0
2017-04-12T03:02:38.931Z,0
2017-04-12T03:03:46.967Z,0
2017-04-12T03:04:55.056Z,0
2017-04-12T03:06:03.143Z,0
2017-04-12T03:07:11.233Z,0
2017-04-12T03:08:19.323Z,0
2017-04-12T03:09:27.410Z,0
2017-04-12T03:10:35.492Z,0
2017-04-12T03:11:43.582Z,0
2017-04-12T03:12:51.665Z,0
2017-04-12T03:13:59.750Z,0
2017-04-12T03:15:07.838Z,0
2017-04-12T03:16:15.931Z,0
2017-04-12T03:17:24.015Z,0
2017-04-12T03:18:32.100Z,0
2017-04-12T03:19:40.193Z,0
2017-04-12T03:20:48.278Z,0
2017-04-12T03:21:56.361Z,0
2017-04-12T03:23:04.450Z,0
2017-04-12T03:24:12.539Z,0
2017-04-12T03:25:20.631Z,0
2017-04-12T03:26:28.714Z,0
2017-04-12T03:27:36.806Z,0
2017-04-12T03:28:44.892Z,0
2017-04-12T03:29:52.973Z,0
2017-04-12T03:31:01.061Z,0
2017-04-12T03:32:09.146Z,0
2017-04-12T03:33:17.227Z,0
2017-04-12T03:34:25.317Z,0
2017-04-12T03:35:33.400Z,0
2017-04-12T03:36:41.490Z,0
2017-04-12T03:37:49.574Z,0
2017-04-12T03:38:57.667Z,0
2017-04-12T03:40:05.749Z,0
2017-04-12T03:41:13.833Z,0
2017-04-12T03:42:21.915Z,0
2017-04-12T03:43:30.007Z,0
2017-04-12T03:44:38.088Z,0
2017-04-12T03:45:46.184Z,0
2017-04-12T03:46:54.271Z,0
2017-04-12T03:48:02.359Z,0
2017-04-12T03:49:10.444Z,0
2017-04-12T03:50:18.572Z,0
2017-04-12T03:51:26.621Z,0
2017-04-12T03:52:34.701Z,0
2017-04-12T03:53:42.787Z,0
2017-04-12T03:54:50.874Z,0
2017-04-12T03:55:58.960Z,0
2017-04-12T03:57:07.042Z,0
2017-04-12T03:58:15.130Z,0
2017-04-12T03:59:23.221Z,0
2017-04-12T04:00:31.306Z,0
2017-04-12T04:01:39.395Z,0
2017-04-12T04:02:47.480Z,0
2017-04-12T04:03:55.578Z,0
2017-04-12T04:05:03.657Z,0
2017-04-12T04:06:11.751Z,0
2017-04-12T04:07:19.896Z,0
2017-04-12T04:08:27.919Z,0
2017-04-12T04:09:36.005Z,0
2017-04-12T04:10:44.094Z,0
2017-04-12T04:11:52.184Z,0
2017-04-12T04:13:00.269Z,0
2017-04-12T04:14:08.355Z,0
2017-04-12T04:15:16.440Z,0
2017-04-12T04:16:24.523Z,0
2017-04-12T04:17:32.609Z,0
2017-04-12T04:18:40.699Z,0
2017-04-12T04:19:48.786Z,0
2017-04-12T04:20:56.867Z,0
2017-04-12T04:22:04.957Z,0
2017-04-12T04:23:13.041Z,0
2017-04-12T04:24:21.128Z,0
2017-04-12T04:25:29.216Z,0
2017-04-12T04:26:37.306Z,0
2017-04-12T04:27:45.395Z,0
2017-04-12T04:28:53.476Z,0
2017-04-12T04:30:01.564Z,0
2017-04-12T04:31:09.650Z,0
2017-04-12T04:32:17.734Z,0
2017-04-12T04:33:25.826Z,0
2017-04-12T04:34:33.916Z,0
2017-04-12T04:35:42.006Z,0
2017-04-12T04:36:50.102Z,0
2017-04-12T04:37:58.190Z,0
2017-04-12T04:39:06.275Z,0
2017-04-12T04:40:14.359Z,0
2017-04-12T04:41:22.443Z,0
2017-04-12T04:42:30.538Z,0
2017-04-12T04:43:38.623Z,0
2017-04-12T04:44:46.707Z,0
2017-04-12T04:45:54.801Z,0
2017-04-12T04:47:02.883Z,0
2017-04-12T04:48:10.969Z,4
2017-04-12T04:49:19.052Z,4
2017-04-12T04:50:27.146Z,0
2017-04-12T04:51:35.233Z,0
2017-04-12T04:52:43.313Z,0
2017-04-12T04:53:51.402Z,0
2017-04-12T04:54:59.488Z,4
2017-04-12T04:56:07.574Z,4
2017-04-12T04:57:15.663Z,4
2017-04-12T04:58:23.750Z,4
2017-04-12T04:59:31.837Z,0
2017-04-12T05:00:39.921Z,0
2017-04-12T05:01:48.009Z,0
2017-04-12T05:02:56.095Z,4
2017-04-12T05:04:04.178Z,4
2017-04-12T05:05:12.277Z,4
2017-04-12T05:06:20.352Z,4
2017-04-12T05:07:28.827Z,4
2017-04-12T05:08:36.518Z,4
2017-04-12T05:09:44.980Z,4
2017-04-12T05:10:52.857Z,4
2017-04-12T05:12:00.781Z,4
2017-04-12T05:13:09.362Z,8
2017-04-12T05:14:16.947Z,4
2017-04-12T05:15:25.034Z,4
2017-04-12T05:16:33.113Z,4
2017-04-12T05:17:41.209Z,8
2017-04-12T05:18:49.298Z,8
2017-04-12T05:19:57.392Z,4
2017-04-12T05:21:05.746Z,4
2017-04-12T05:22:14.123Z,8
2017-04-12T05:23:21.646Z,8
2017-04-12T05:24:29.740Z,8
2017-04-12T05:25:37.820Z,8
2017-04-12T05:26:45.907Z,8
2017-04-12T05:27:53.992Z,8
2017-04-12T05:29:02.077Z,8
2017-04-12T05:30:10.162Z,8
2017-04-12T05:31:18.240Z,12
2017-04-12T05:32:26.408Z,8
2017-04-12T05:33:34.416Z,12
2017-04-12T05:34:42.497Z,12
2017-04-12T05:35:50.583Z,12
2017-04-12T05:36:59.217Z,16
2017-04-12T05:38:06.759Z,16
2017-04-12T05:39:14.852Z,20
2017-04-12T05:40:22.935Z,20
2017-04-12T05:41:31.027Z,20
2017-04-12T05:42:39.113Z,24
2017-04-12T05:43:47.197Z,24
2017-04-12T05:44:55.292Z,32
2017-04-12T05:46:03.376Z,32
2017-04-12T05:47:12.102Z,28
2017-04-12T05:48:19.554Z,32
2017-04-12T05:49:27.639Z,28
2017-04-12T05:50:35.730Z,28
2017-04-12T05:51:43.809Z,28
2017-04-12T05:52:51.903Z,32
2017-04-12T05:53:59.989Z,32
2017-04-12T05:55:08.073Z,36
2017-04-12T05:56:16.159Z,36
2017-04-12T05:57:24.253Z,44
2017-04-12T05:58:32.334Z,48
2017-04-12T05:59:40.415Z,48
2017-04-12T06:00:48.513Z,48
2017-04-12T06:01:56.593Z,48
2017-04-12T06:03:04.683Z,52
2017-04-12T06:04:12.767Z,48
2017-04-12T06:05:20.851Z,56
2017-04-12T06:06:28.933Z,52
2017-04-12T06:07:37.017Z,36
2017-04-12T06:08:45.106Z,48
2017-04-12T06:09:53.194Z,56
2017-04-12T06:11:01.281Z,56
2017-04-12T06:12:09.367Z,44
2017-04-12T06:13:17.454Z,60
2017-04-12T06:14:25.536Z,60
2017-04-12T06:15:33.619Z,52
2017-04-12T06:16:41.712Z,60
2017-04-12T06:17:49.794Z,56
2017-04-12T06:18:57.877Z,36
2017-04-12T06:20:05.967Z,48
2017-04-12T06:21:14.051Z,48
2017-04-12T06:22:22.137Z,52
2017-04-12T06:23:30.227Z,52
2017-04-12T06:24:38.310Z,52
2017-04-12T06:25:46.395Z,48
2017-04-12T06:26:54.479Z,56
2017-04-12T06:28:02.740Z,60
2017-04-12T06:29:10.653Z,64
2017-04-12T06:30:18.745Z,64
2017-04-12T06:31:26.819Z,56
2017-04-12T06:32:34.906Z,44
2017-04-12T06:33:42.994Z,44
2017-04-12T06:34:51.073Z,60
2017-04-12T06:35:59.210Z,64
2017-04-12T06:37:07.246Z,60
2017-04-12T06:38:15.340Z,60
2017-04-12T06:39:23.421Z,56
2017-04-12T06:40:31.508Z,52
2017-04-12T06:41:39.594Z,48
2017-04-12T06:42:47.680Z,44
2017-04-12T06:43:55.779Z,36
2017-04-12T06:45:03.861Z,36
2017-04-12T06:46:11.945Z,28
2017-04-12T06:47:20.035Z,32
2017-04-12T06:48:28.125Z,40
2017-04-12T06:49:36.208Z,36
2017-04-12T06:50:44.293Z,36
2017-04-12T06:51:52.381Z,40
2017-04-12T06:53:00.480Z,40
2017-04-12T06:54:08.552Z,40
2017-04-12T06:55:16.637Z,36
2017-04-12T06:56:24.726Z,36
2017-04-12T06:57:32.810Z,36
2017-04-12T06:58:40.901Z,44
2017-04-12T06:59:48.982Z,44
2017-04-12T07:00:57.074Z,52
2017-04-12T07:02:05.162Z,52
2017-04-12T07:03:13.248Z,48
2017-04-12T07:04:21.346Z,40
2017-04-12T07:05:29.426Z,44
2017-04-12T07:06:37.509Z,44
2017-04-12T07:07:45.599Z,40
2017-04-12T07:08:53.682Z,36
2017-04-12T07:10:01.792Z,40
2017-04-12T07:11:09.855Z,44
2017-04-12T07:12:17.941Z,48
2017-04-12T07:13:26.028Z,56
2017-04-12T07:14:34.117Z,60
2017-04-12T07:15:42.199Z,68
2017-04-12T07:16:50.287Z,72
2017-04-12T07:17:58.367Z,72
2017-04-12T07:19:06.459Z,68
2017-04-12T07:20:14.545Z,60
2017-04-12T07:21:22.629Z,56
2017-04-12T07:22:30.715Z,44
2017-04-12T07:23:38.804Z,36
2017-04-12T07:24:46.894Z,40
2017-04-12T07:25:54.971Z,36
2017-04-12T07:27:03.064Z,36
2017-04-12T07:28:11.142Z,36
2017-04-12T07:29:19.259Z,40
2017-04-12T07:30:27.308Z,40
2017-04-12T07:31:35.403Z,40
2017-04-12T07:32:43.494Z,36
2017-04-12T07:33:51.575Z,36
2017-04-12T07:34:59.666Z,44
2017-04-12T07:36:07.759Z,44
2017-04-12T07:37:15.847Z,48
2017-04-12T07:38:23.926Z,52
2017-04-12T07:39:32.018Z,52
2017-04-12T07:40:40.104Z,56
2017-04-12T07:41:48.186Z,60
2017-04-12T07:42:56.274Z,60
2017-04-12T07:44:04.357Z,60
2017-04-12T07:45:12.439Z,60
2017-04-12T07:46:20.523Z,60
2017-04-12T07:47:28.614Z,60
2017-04-12T07:48:36.699Z,60
2017-04-12T07:49:44.803Z,64
2017-04-12T07:50:52.870Z,56
2017-04-12T07:52:00.950Z,64
2017-04-12T07:53:09.035Z,60
2017-04-12T07:54:17.118Z,60
2017-04-12T07:55:25.209Z,60
2017-04-12T07:56:33.292Z,60
2017-04-12T07:57:41.375Z,56
2017-04-12T07:58:49.462Z,56
2017-04-12T07:59:57.694Z,60
2017-04-12T08:01:05.639Z,60
2017-04-12T08:02:13.721Z,60
2017-04-12T08:03:21.806Z,56
2017-04-12T08:04:29.893Z,60
2017-04-12T08:05:37.986Z,56
2017-04-12T08:06:46.075Z,60
2017-04-12T08:07:54.156Z,56
2017-04-12T08:09:02.239Z,60
2017-04-12T08:10:10.329Z,56
2017-04-12T08:11:18.409Z,60
2017-04-12T08:12:26.500Z,60
2017-04-12T08:13:34.589Z,60
2017-04-12T08:14:42.678Z,56
2017-04-12T08:15:50.766Z,60
2017-04-12T08:16:58.837Z,60
2017-04-12T08:18:06.927Z,60
2017-04-12T08:19:15.012Z,60
2017-04-12T08:20:23.091Z,56
2017-04-12T08:21:31.177Z,56
2017-04-12T08:22:39.266Z,52
2017-04-12T08:23:47.354Z,52
2017-04-12T08:24:55.446Z,52
2017-04-12T08:26:03.529Z,52
2017-04-12T08:27:11.625Z,40
2017-04-12T08:28:19.708Z,48
2017-04-12T08:29:27.798Z,48
2017-04-12T08:30:35.887Z,48
2017-04-12T08:31:43.981Z,52
2017-04-12T08:32:52.063Z,52
2017-04-12T08:34:00.149Z,52
2017-04-12T08:35:08.237Z,52
2017-04-12T08:36:16.326Z,52
2017-04-12T08:37:24.416Z,52
2017-04-12T08:38:32.494Z,52
2017-04-12T08:39:40.579Z,56
2017-04-12T08:40:48.661Z,52
2017-04-12T08:41:56.755Z,56
2017-04-12T08:43:04.836Z,52
2017-04-12T08:44:12.918Z,48
2017-04-12T08:45:21.003Z,52
2017-04-12T08:46:29.094Z,48
2017-04-12T08:47:37.181Z,52
2017-04-12T08:48:45.264Z,56
2017-04-12T08:49:53.350Z,56
2017-04-12T08:51:01.446Z,52
2017-04-12T08:52:09.543Z,52
2017-04-12T08:53:17.650Z,48
2017-04-12T08:54:25.792Z,48
2017-04-12T08:55:33.867Z,52
2017-04-12T08:56:41.876Z,52
2017-04-12T08:57:49.992Z,56
2017-04-12T08:58:58.099Z,52
2017-04-12T09:00:06.188Z,52
2017-04-12T09:01:14.293Z,52
2017-04-12T09:02:22.355Z,56
2017-04-12T09:03:30.485Z,56
2017-04-12T09:04:38.522Z,56
2017-04-12T09:05:46.574Z,60
2017-04-12T09:06:54.665Z,56
2017-04-12T09:08:02.733Z,60
2017-04-12T09:09:10.826Z,56
2017-04-12T09:10:18.910Z,52
2017-04-12T09:11:26.995Z,52
2017-04-12T09:12:35.076Z,52
2017-04-12T09:13:43.166Z,52
2017-04-12T09:14:51.248Z,52
2017-04-12T09:15:59.330Z,56
2017-04-12T09:17:07.416Z,56
2017-04-12T09:18:15.721Z,52
2017-04-12T09:19:24.040Z,56
2017-04-12T09:20:31.678Z,52
2017-04-12T09:21:39.770Z,52
2017-04-12T09:22:47.856Z,52
2017-04-12T09:23:55.940Z,56
2017-04-12T09:25:04.018Z,56
2017-04-12T09:26:12.502Z,52
2017-04-12T09:27:20.201Z,56
2017-04-12T09:28:28.372Z,56
2017-04-12T09:29:36.369Z,56
2017-04-12T09:30:44.461Z,56
2017-04-12T09:31:52.935Z,52
2017-04-12T09:33:01.114Z,52
2017-04-12T09:34:08.710Z,52
2017-04-12T09:35:16.800Z,52
2017-04-12T09:36:25.817Z,48
2017-04-12T09:37:33.582Z,52
2017-04-12T09:38:41.647Z,52
2017-04-12T09:39:49.138Z,56
2017-04-12T09:40:57.233Z,56
2017-04-12T09:42:05.348Z,56
2017-04-12T09:43:13.632Z,56
2017-04-12T09:44:21.745Z,56
2017-04-12T09:45:29.578Z,56
2017-04-12T09:46:37.671Z,56
2017-04-12T09:47:45.753Z,56
2017-04-12T09:48:53.842Z,52
2017-04-12T09:50:01.921Z,56
2017-04-12T09:51:10.201Z,56
2017-04-12T09:52:18.089Z,56
2017-04-12T09:53:26.751Z,52
2017-04-12T09:54:34.257Z,52
2017-04-12T09:55:42.342Z,52
2017-04-12T09:56:50.429Z,52
2017-04-12T09:57:58.520Z,52
2017-04-12T09:59:07.087Z,56
2017-04-12T10:00:15.321Z,48
2017-04-12T10:01:23.394Z,56
2017-04-12T10:02:30.868Z,56
2017-04-12T10:03:38.949Z,56
2017-04-12T10:04:47.042Z,56
2017-04-12T10:05:55.128Z,52
2017-04-12T10:07:03.214Z,56
2017-04-12T10:08:11.302Z,60
2017-04-12T10:09:19.387Z,56
2017-04-12T10:10:27.470Z,56
2017-04-12T10:11:35.555Z,56
2017-04-12T10:12:43.714Z,56
2017-04-12T10:13:51.735Z,60
2017-04-12T10:14:59.820Z,56
2017-04-12T10:16:07.904Z,56
2017-04-12T10:17:15.991Z,52
2017-04-12T10:18:24.145Z,52
2017-04-12T10:19:32.156Z,56
2017-04-12T10:20:40.245Z,56
2017-04-12T10:21:48.330Z,56
2017-04-12T10:22:56.413Z,56
2017-04-12T10:24:04.503Z,52
2017-04-12T10:25:12.587Z,52
2017-04-12T10:26:20.671Z,52
2017-04-12T10:27:28.752Z,52
2017-04-12T10:28:36.842Z,52
2017-04-12T10:29:44.929Z,48
2017-04-12T10:30:53.010Z,48
2017-04-12T10:32:01.098Z,52
2017-04-12T10:33:09.184Z,56
2017-04-12T10:34:17.270Z,56
2017-04-12T10:35:25.354Z,52
2017-04-12T10:36:33.442Z,52
2017-04-12T10:37:41.525Z,52
2017-04-12T10:38:49.615Z,52
2017-04-12T10:39:57.700Z,52
2017-04-12T10:41:05.785Z,56
2017-04-12T10:42:13.865Z,56
2017-04-12T10:43:21.951Z,56
2017-04-12T10:44:30.045Z,56
2017-04-12T10:45:38.125Z,56
2017-04-12T10:46:46.205Z,56
2017-04-12T10:47:54.292Z,56
2017-04-12T10:49:02.390Z,52
2017-04-12T10:50:10.485Z,56
2017-04-12T10:51:18.634Z,56
2017-04-12T10:52:26.641Z,56
2017-04-12T10:53:34.728Z,52
2017-04-12T10:54:42.813Z,56
2017-04-12T10:55:50.905Z,56
2017-04-12T10:56:59.000Z,56
2017-04-12T10:58:07.077Z,52
2017-04-12T10:59:15.161Z,48
2017-04-12T11:00:23.250Z,48
2017-04-12T11:01:31.333Z,48
2017-04-12T11:02:39.416Z,52
2017-04-12T11:03:47.504Z,52
2017-04-12T11:04:55.592Z,48
2017-04-12T11:06:03.678Z,52
2017-04-12T11:07:11.764Z,52
2017-04-12T11:08:19.851Z,52
2017-04-12T11:09:27.933Z,48
2017-04-12T11:10:36.025Z,48
2017-04-12T11:11:44.113Z,48
2017-04-12T11:12:52.198Z,48
2017-04-12T11:14:00.282Z,48
2017-04-12T11:15:08.369Z,48
2017-04-12T11:16:16.462Z,48
2017-04-12T11:17:24.541Z,48
2017-04-12T11:18:32.629Z,48
2017-04-12T11:19:40.718Z,48
2017-04-12T11:20:48.806Z,48
2017-04-12T11:21:56.886Z,52
2017-04-12T11:23:04.978Z,52
2017-04-12T11:24:13.068Z,48
2017-04-12T11:25:21.193Z,48
2017-04-12T11:26:29.241Z,48
2017-04-12T11:27:37.328Z,48
2017-04-12T11:28:45.417Z,44
2017-04-12T11:29:53.497Z,48
2017-04-12T11:31:01.588Z,48
2017-04-12T11:32:09.672Z,48
2017-04-12T11:33:17.754Z,48
2017-04-12T11:34:25.837Z,44
2017-04-12T11:35:33.924Z,48
2017-04-12T11:36:42.014Z,48
2017-04-12T11:37:50.102Z,48
2017-04-12T11:38:58.186Z,44
2017-04-12T11:40:06.271Z,44
2017-04-12T11:41:14.351Z,48
2017-04-12T11:42:22.436Z,44
2017-04-12T11:43:30.525Z,44
2017-04-12T11:44:38.607Z,44
2017-04-12T11:45:46.692Z,44
2017-04-12T11:46:54.782Z,44
2017-04-12T11:48:02.864Z,48
2017-04-12T11:49:10.952Z,48
2017-04-12T11:50:19.035Z,44
2017-04-12T11:51:27.118Z,44
2017-04-12T11:52:35.209Z,48
2017-04-12T11:53:43.287Z,44
2017-04-12T11:54:51.382Z,44
2017-04-12T11:55:59.463Z,44
2017-04-12T11:57:07.539Z,44
2017-04-12T11:58:15.624Z,44
2017-04-12T11:59:23.718Z,44
2017-04-12T12:00:31.808Z,44
2017-04-12T12:01:39.900Z,44
2017-04-12T12:02:47.980Z,44
2017-04-12T12:03:56.066Z,44
2017-04-12T12:05:04.148Z,40
2017-04-12T12:06:12.233Z,44
2017-04-12T12:07:20.322Z,44
2017-04-12T12:08:28.407Z,40
2017-04-12T12:09:36.493Z,40
2017-04-12T12:10:44.616Z,44
2017-04-12T12:11:52.673Z,44
2017-04-12T12:13:00.757Z,44
2017-04-12T12:14:09.394Z,40
2017-04-12T12:15:16.933Z,44
2017-04-12T12:16:25.017Z,44
2017-04-12T12:17:33.097Z,40
2017-04-12T12:18:41.196Z,44
2017-04-12T12:19:49.282Z,44
2017-04-12T12:20:57.360Z,44
2017-04-12T12:22:05.449Z,44
2017-04-12T12:23:13.530Z,40
2017-04-12T12:24:21.613Z,40
2017-04-12T12:25:29.695Z,40
2017-04-12T12:26:37.785Z,44
2017-04-12T12:27:45.877Z,40
2017-04-12T12:28:53.960Z,40
2017-04-12T12:30:02.047Z,44
2017-04-12T12:31:10.133Z,44
2017-04-12T12:32:18.215Z,40
2017-04-12T12:33:26.299Z,44
2017-04-12T12:34:34.391Z,40
2017-04-12T12:35:42.476Z,40
2017-04-12T12:36:50.558Z,40
2017-04-12T12:37:58.642Z,40
2017-04-12T12:39:06.729Z,40
2017-04-12T12:40:14.808Z,40
2017-04-12T12:41:22.990Z,36
2017-04-12T12:42:30.984Z,40
2017-04-12T12:43:39.069Z,40
2017-04-12T12:44:47.148Z,40
2017-04-12T12:45:55.242Z,36
2017-04-12T12:47:03.335Z,40
2017-04-12T12:48:11.415Z,40
2017-04-12T12:49:19.498Z,40
2017-04-12T12:50:27.586Z,36
2017-04-12T12:51:35.672Z,40
2017-04-12T12:52:43.756Z,36
2017-04-12T12:53:51.850Z,40
2017-04-12T12:54:59.934Z,40
2017-04-12T12:56:08.023Z,40
2017-04-12T12:57:16.105Z,36
2017-04-12T12:58:24.203Z,36
2017-04-12T12:59:32.284Z,40
2017-04-12T13:00:40.371Z,36
2017-04-12T13:01:48.457Z,40
2017-04-12T13:02:56.547Z,40
2017-04-12T13:04:04.628Z,36
2017-04-12T13:05:12.716Z,36
2017-04-12T13:06:20.804Z,36
2017-04-12T13:07:28.889Z,40
2017-04-12T13:08:36.972Z,40
2017-04-12T13:09:45.058Z,36
2017-04-12T13:10:53.142Z,36
2017-04-12T13:12:01.228Z,40
2017-04-12T13:13:09.309Z,36
2017-04-12T13:14:17.398Z,40
2017-04-12T13:15:25.490Z,36
2017-04-12T13:16:33.568Z,36
2017-04-12T13:17:41.662Z,36
2017-04-12T13:18:49.748Z,36
2017-04-12T13:19:57.827Z,36
2017-04-12T13:21:05.915Z,36
2017-04-12T13:22:14.004Z,36
2017-04-12T13:23:22.096Z,36
2017-04-12T13:24:30.178Z,36
2017-04-12T13:25:38.266Z,36
2017-04-12T13:26:46.354Z,36
2017-04-12T13:27:54.439Z,36
2017-04-12T13:29:02.528Z,40
2017-04-12T13:30:10.619Z,36
2017-04-12T13:31:18.704Z,32
2017-04-12T13:32:26.793Z,36
2017-04-12T13:33:34.881Z,36
2017-04-12T13:34:42.975Z,36
2017-04-12T13:35:51.059Z,32
2017-04-12T13:36:59.145Z,36
2017-04-12T13:38:07.239Z,32
2017-04-12T13:39:15.322Z,36
2017-04-12T13:40:23.404Z,36
2017-04-12T13:41:31.494Z,36
2017-04-12T13:42:39.578Z,32
2017-04-12T13:43:47.660Z,36
2017-04-12T13:44:55.782Z,36
2017-04-12T13:46:03.832Z,36
2017-04-12T13:47:11.919Z,36
2017-04-12T13:48:20.008Z,36
2017-04-12T13:49:28.093Z,36
2017-04-12T13:50:36.178Z,36
2017-04-12T13:51:44.258Z,32
2017-04-12T13:52:52.345Z,36
2017-04-12T13:54:00.430Z,36
2017-04-12T13:55:08.512Z,36
2017-04-12T13:56:16.597Z,36
2017-04-12T13:57:24.687Z,36
2017-04-12T13:58:32.770Z,36
2017-04-12T13:59:40.852Z,36
2017-04-12T14:00:48.949Z,32
2017-04-12T14:01:57.030Z,36
2017-04-12T14:03:05.115Z,32
2017-04-12T14:04:13.198Z,36
2017-04-12T14:05:21.285Z,36
2017-04-12T14:06:29.369Z,36
2017-04-12T14:07:37.450Z,32
2017-04-12T14:08:45.539Z,32
2017-04-12T14:09:53.630Z,32
2017-04-12T14:11:01.710Z,32
2017-04-12T14:12:09.792Z,32
2017-04-12T14:13:17.881Z,36
2017-04-12T14:14:25.966Z,32
2017-04-12T14:15:34.046Z,32
2017-04-12T14:16:42.136Z,36
2017-04-12T14:17:50.222Z,36
2017-04-12T14:18:58.307Z,32
2017-04-12T14:20:06.392Z,36
2017-04-12T14:21:14.481Z,32
2017-04-12T14:22:22.566Z,36
2017-04-12T14:23:30.647Z,36
2017-04-12T14:24:38.738Z,36
2017-04-12T14:25:46.833Z,36
2017-04-12T14:26:54.918Z,36
2017-04-12T14:28:03.002Z,36
2017-04-12T14:29:11.090Z,32
2017-04-12T14:30:19.169Z,36
2017-04-12T14:31:27.255Z,36
2017-04-12T14:32:35.357Z,36
2017-04-12T14:33:43.441Z,36
2017-04-12T14:34:51.526Z,32
2017-04-12T14:35:59.617Z,36
2017-04-12T14:37:07.712Z,32
2017-04-12T14:38:15.799Z,36
2017-04-12T14:39:23.879Z,36
2017-04-12T14:40:31.969Z,32
2017-04-12T14:41:40.060Z,32
2017-04-12T14:42:48.140Z,32
2017-04-12T14:43:56.622Z,32
2017-04-12T14:45:04.313Z,36
2017-04-12T14:46:12.400Z,36
2017-04-12T14:47:20.482Z,32
2017-04-12T14:48:28.565Z,32
2017-04-12T14:49:36.652Z,32
2017-04-12T14:50:44.732Z,32
2017-04-12T14:51:52.819Z,32
2017-04-12T14:53:00.905Z,32
2017-04-12T14:54:08.990Z,32
2017-04-12T14:55:17.080Z,36
2017-04-12T14:56:25.171Z,32
2017-04-12T14:57:33.256Z,32
2017-04-12T14:58:41.334Z,32
2017-04-12T14:59:49.432Z,28
2017-04-12T15:00:57.520Z,32
2017-04-12T15:02:05.612Z,28
2017-04-12T15:03:13.690Z,28
2017-04-12T15:04:21.783Z,28
2017-04-12T15:05:29.872Z,28
2017-04-12T15:06:37.958Z,28
2017-04-12T15:07:46.047Z,28
2017-04-12T15:08:54.134Z,28
2017-04-12T15:10:02.281Z,28
2017-04-12T15:11:10.302Z,20
2017-04-12T15:12:18.389Z,16
2017-04-12T15:13:26.475Z,16
2017-04-12T15:14:34.556Z,16
2017-04-12T15:15:42.645Z,16
2017-04-12T15:16:50.738Z,16
2017-04-12T15:17:58.828Z,16
2017-04-12T15:19:06.910Z,12
2017-04-12T15:20:15.000Z,16
2017-04-12T15:21:23.080Z,16
2017-04-12T15:22:31.229Z,20
2017-04-12T15:23:39.250Z,20
2017-04-12T15:24:47.335Z,20
2017-04-12T15:25:55.431Z,20
2017-04-12T15:27:03.562Z,28
2017-04-12T15:28:11.792Z,28
2017-04-12T15:29:19.677Z,24
2017-04-12T15:30:27.771Z,24
2017-04-12T15:31:35.863Z,24
2017-04-12T15:32:43.954Z,24
2017-04-12T15:33:52.041Z,24
2017-04-12T15:35:00.445Z,24
2017-04-12T15:36:08.213Z,24
2017-04-12T15:37:16.407Z,20
2017-04-12T15:38:24.382Z,24
2017-04-12T15:39:32.473Z,24
2017-04-12T15:40:40.560Z,24
2017-04-12T15:41:48.642Z,20
2017-04-12T15:42:56.738Z,24
2017-04-12T15:44:04.878Z,24
2017-04-12T15:45:12.906Z,24
2017-04-12T15:46:20.994Z,24
2017-04-12T15:47:29.082Z,24
2017-04-12T15:48:37.168Z,24
2017-04-12T15:49:45.253Z,24
2017-04-12T15:50:53.338Z,20
2017-04-12T15:52:01.434Z,20
2017-04-12T15:53:09.506Z,24
2017-04-12T15:54:18.173Z,24
2017-04-12T15:55:25.681Z,24
2017-04-12T15:56:33.772Z,24
2017-04-12T15:57:41.856Z,20
2017-04-12T15:58:49.950Z,24
2017-04-12T15:59:58.043Z,24
2017-04-12T16:01:06.146Z,20
2017-04-12T16:02:14.216Z,20
2017-04-12T16:03:22.306Z,24
2017-04-12T16:04:30.390Z,20
2017-04-12T16:05:38.477Z,20
2017-04-12T16:06:46.563Z,20
2017-04-12T16:07:54.650Z,20
2017-04-12T16:09:02.735Z,20
2017-04-12T16:10:10.818Z,20
2017-04-12T16:11:18.912Z,20
2017-04-12T16:12:27.000Z,24
2017-04-12T16:13:35.086Z,20
2017-04-12T16:14:43.170Z,20
2017-04-12T16:15:51.267Z,24
2017-04-12T16:16:59.349Z,20
2017-04-12T16:18:07.437Z,20
2017-04-12T16:19:15.525Z,20
2017-04-12T16:20:23.610Z,20
2017-04-12T16:21:31.698Z,16
2017-04-12T16:22:39.788Z,16
2017-04-12T16:23:47.872Z,12